Terminal Aerodrome Forecast
Issued by NWS

Home | Current Version | Previous Version | Text Only | Print | Product List | Glossary On
Versions: 1 2 3 4 5 6 7 8 9 10 11 12 13 14 15 16
499
FTUS43 KLSX 181121
TAFCPS
TAF
KCPS 181121Z 1812/1912 10009KT P6SM BKN120
     FM181400 16010G19KT P6SM BKN060
     FM181500 20012G21KT P6SM BKN070
     FM181600 25015G24KT P6SM BKN050
     FM181800 28021G32KT P6SM BKN050
     FM190300 32019G28KT P6SM BKN045
     FM191000 32011G18KT P6SM BKN030=

USA.gov is the U.S. government's official web portal to all federal, state and local government web resources and services.